Time;durP1;ratioP1;P1;durP2;ratioP2;P2;SDS_P1;SDS_P2;PMS_P1;PMS_P2;Temp;Humidity;BMP_temperature;BMP_pressure;BME280_temperature;BME280_humidity;BME280_pressure;Samples;Min_cycle;Max_cycle;Signal;HPM_P1;HPM_P2
2021/12/04 00:02:16;;;;;;;4.40;2.67;;;;;;;2.86;78.10;97686.31;2623052;54;20038;-70
2021/12/04 00:04:48;;;;;;;4.05;2.60;;;;;;;2.87;78.29;97671.47;2623957;54;20010;-70
2021/12/04 00:07:18;;;;;;;2.58;2.15;;;;;;;2.93;78.01;97658.53;2623851;54;20670;-71
2021/12/04 00:09:57;;;;;;;2.88;2.38;;;;;;;2.94;77.93;97659.34;2623200;54;20030;-71
2021/12/04 00:12:27;;;;;;;2.75;2.40;;;;;;;2.95;77.81;97651.34;2622260;54;20038;-70
2021/12/04 00:14:57;;;;;;;5.97;3.53;;;;;;;3.02;78.06;97641.03;2623896;31;20546;-69
2021/12/04 00:17:27;;;;;;;5.30;3.22;;;;;;;3.06;77.89;97636.25;2623477;47;20029;-69
2021/12/04 00:19:57;;;;;;;4.80;2.85;;;;;;;3.05;78.07;97634.63;2624300;54;20037;-70
2021/12/04 00:22:26;;;;;;;3.92;2.20;;;;;;;3.09;77.94;97618.44;2624093;54;20546;-71
2021/12/04 00:24:58;;;;;;;3.05;1.90;;;;;;;3.11;77.69;97613.88;2625660;39;20454;-70
2021/12/04 00:27:28;;;;;;;1.70;1.40;;;;;;;3.19;77.61;97607.78;2625737;54;20026;-70
2021/12/04 00:29:58;;;;;;;2.47;2.10;;;;;;;3.18;77.81;97595.69;2626521;54;20098;-69
2021/12/04 00:32:31;;;;;;;4.35;1.95;;;;;;;3.27;77.62;97586.81;2626177;54;20054;-70
2021/12/04 00:35:09;;;;;;;3.83;1.83;;;;;;;3.29;77.21;97581.41;2625748;54;20019;-70
2021/12/04 00:38:00;;;;;;;4.38;1.85;;;;;;;3.35;77.21;97571.09;2626532;54;20030;-69
2021/12/04 00:43:24;;;;;;;2.55;1.88;;;;;;;3.28;77.49;97559.72;2627350;39;20437;-70
2021/12/04 00:51:19;;;;;;;1.75;1.40;;;;;;;3.25;76.82;97557.44;2627551;39;20443;-70
2021/12/04 00:53:54;;;;;;;2.47;1.50;;;;;;;3.23;76.72;97551.59;2626484;54;20042;-70
2021/12/04 00:56:26;;;;;;;1.98;1.70;;;;;;;3.19;76.83;97561.59;2625994;47;20023;-71
2021/12/04 00:58:55;;;;;;;1.90;1.50;;;;;;;3.17;76.80;97557.50;2626675;54;20037;-70
2021/12/04 01:01:25;;;;;;;2.17;1.60;;;;;;;3.09;76.73;97566.22;2626272;54;20038;-70
2021/12/04 01:03:55;;;;;;;1.98;1.30;;;;;;;3.09;77.00;97568.03;2626507;54;20023;-70
2021/12/04 01:06:25;;;;;;;1.85;1.58;;;;;;;3.11;76.90;97568.69;2626597;54;20037;-70
2021/12/04 01:08:54;;;;;;;1.63;1.52;;;;;;;3.08;77.15;97564.59;2626134;54;20842;-70
2021/12/04 01:11:27;;;;;;;1.65;1.48;;;;;;;3.11;76.99;97558.22;2626336;54;20038;-70
2021/12/04 01:13:56;;;;;;;1.30;1.20;;;;;;;3.06;77.14;97552.69;2626280;54;20027;-71
2021/12/04 01:16:26;;;;;;;1.33;1.23;;;;;;;3.01;76.71;97560.25;2626081;54;20597;-69
2021/12/04 01:18:55;;;;;;;1.38;1.27;;;;;;;2.93;76.68;97548.88;2626170;54;20086;-69
2021/12/04 01:21:25;;;;;;;1.38;1.27;;;;;;;2.88;76.46;97546.00;2625625;54;20038;-70
2021/12/04 01:23:55;;;;;;;1.25;1.15;;;;;;;2.84;76.59;97546.50;2626378;54;20538;-70
2021/12/04 01:26:27;;;;;;;1.30;1.20;;;;;;;2.78;76.70;97534.19;2626940;54;20034;-70
2021/12/04 01:28:57;;;;;;;1.30;1.20;;;;;;;2.71;76.97;97532.25;2626773;54;20023;-71
2021/12/04 01:31:27;;;;;;;2.53;1.60;;;;;;;2.75;77.01;97530.09;2625171;47;20038;-70
2021/12/04 01:33:57;;;;;;;2.95;1.50;;;;;;;2.68;76.39;97527.38;2624589;54;20022;-70
2021/12/04 01:36:29;;;;;;;1.95;1.30;;;;;;;2.70;77.04;97522.00;2624053;39;20429;-68
2021/12/04 01:38:58;;;;;;;1.30;1.20;;;;;;;2.74;77.28;97525.88;2624258;54;20034;-69
2021/12/04 01:41:32;;;;;;;1.73;1.10;;;;;;;2.71;77.18;97519.19;2623842;54;20061;-69
2021/12/04 01:44:03;;;;;;;1.50;1.25;;;;;;;2.71;76.71;97518.38;2624820;39;20446;-70
2021/12/04 01:46:33;;;;;;;1.20;1.10;;;;;;;2.77;77.14;97514.25;2624927;54;20046;-70
2021/12/04 01:49:05;;;;;;;2.00;1.15;;;;;;;2.81;77.21;97508.50;2625393;54;20022;-70
2021/12/04 01:51:34;;;;;;;1.67;1.20;;;;;;;2.79;77.17;97504.47;2624780;54;20034;-70
2021/12/04 01:54:04;;;;;;;1.45;1.20;;;;;;;2.77;77.07;97506.44;2625182;54;20585;-70
2021/12/04 01:56:36;;;;;;;1.83;1.23;;;;;;;2.75;76.89;97498.78;2626286;54;20069;-70
2021/12/04 01:59:06;;;;;;;1.42;1.10;;;;;;;2.75;77.07;97490.97;2626585;54;20025;-70
2021/12/04 02:01:36;;;;;;;1.30;1.17;;;;;;;2.76;76.93;97487.34;2625606;47;20086;-70
2021/12/04 02:04:07;;;;;;;1.42;1.00;;;;;;;2.75;76.79;97472.69;2625560;54;20026;-70
2021/12/04 02:06:38;;;;;;;1.63;1.08;;;;;;;2.77;76.96;97470.69;2625634;47;20037;-70
2021/12/04 02:09:07;;;;;;;1.48;1.30;;;;;;;2.79;77.27;97462.72;2626197;54;20576;-70
2021/12/04 02:11:40;;;;;;;1.27;1.10;;;;;;;2.84;76.81;97465.59;2625610;47;20061;-70
2021/12/04 02:14:10;;;;;;;3.13;1.30;;;;;;;2.83;76.83;97459.56;2626316;54;20041;-70
2021/12/04 02:16:39;;;;;;;1.00;1.00;;;;;;;2.86;76.97;97454.00;2626140;47;20034;-69
2021/12/04 02:19:09;;;;;;;1.80;1.30;;;;;;;2.83;76.59;97449.13;2626358;54;20026;-70
2021/12/04 02:21:41;;;;;;;1.40;1.10;;;;;;;2.77;76.30;97442.00;2626263;54;20022;-70
2021/12/04 02:24:11;;;;;;;2.38;1.20;;;;;;;2.48;76.78;97438.31;2626395;54;20038;-70
2021/12/04 02:26:41;;;;;;;1.58;1.38;;;;;;;2.48;77.21;97433.09;2626239;54;20042;-69
2021/12/04 02:29:10;;;;;;;1.30;1.20;;;;;;;2.56;77.60;97429.63;2620942;47;20034;-68
2021/12/04 02:31:41;;;;;;;1.10;1.00;;;;;;;2.64;77.99;97424.34;2620833;39;20406;-69
2021/12/04 02:34:10;;;;;;;1.30;1.20;;;;;;;2.69;78.02;97421.19;2619818;54;20038;-68
2021/12/04 02:36:43;;;;;;;1.38;0.90;;;;;;;2.72;77.68;97413.81;2620363;54;20030;-70
2021/12/04 02:39:23;;;;;;;1.65;1.30;;;;;;;2.73;78.06;97407.63;2620046;54;20033;-68
2021/12/04 02:41:53;;;;;;;1.30;1.20;;;;;;;2.75;77.86;97417.88;2620298;54;20030;-68
2021/12/04 02:44:24;;;;;;;1.20;1.05;;;;;;;2.77;77.90;97405.47;2619904;54;20081;-68
2021/12/04 02:46:53;;;;;;;0.90;0.90;;;;;;;2.72;77.76;97407.78;2625108;54;20033;-68
2021/12/04 02:49:23;;;;;;;1.70;1.23;;;;;;;2.77;77.78;97396.81;2624763;47;20050;-69
2021/12/04 02:51:55;;;;;;;1.30;1.20;;;;;;;2.84;77.76;97400.34;2625190;54;20038;-69
2021/12/04 02:54:24;;;;;;;1.30;1.20;;;;;;;2.73;77.38;97397.19;2625470;54;20042;-68
2021/12/04 02:56:54;;;;;;;1.50;1.20;;;;;;;2.70;77.75;97396.75;2624111;54;20046;-69
2021/12/04 02:59:24;;;;;;;1.58;1.23;;;;;;;2.73;78.16;97381.53;2623997;54;20554;-68
2021/12/04 03:01:56;;;;;;;1.58;1.48;;;;;;;2.80;77.90;97376.41;2622697;54;20034;-68
2021/12/04 03:04:27;;;;;;;1.40;1.20;;;;;;;2.73;77.39;97365.88;2623175;54;20040;-69
2021/12/04 03:06:59;;;;;;;1.67;1.30;;;;;;;2.79;77.88;97360.94;2622249;54;20542;-69
2021/12/04 03:09:29;;;;;;;1.08;0.98;;;;;;;2.75;77.69;97351.84;2622794;54;20035;-69
2021/12/04 03:11:59;;;;;;;1.23;1.13;;;;;;;2.68;78.19;97362.16;2622750;54;20035;-69
2021/12/04 03:14:28;;;;;;;1.30;1.20;;;;;;;2.70;77.71;97350.56;2622245;54;20058;-68
2021/12/04 03:16:58;;;;;;;1.35;1.17;;;;;;;2.70;78.30;97353.19;2622197;54;20037;-68
2021/12/04 03:19:28;;;;;;;2.00;1.52;;;;;;;2.65;78.25;97350.31;2622584;54;20026;-69
2021/12/04 03:22:02;;;;;;;1.42;1.17;;;;;;;2.68;78.14;97347.31;2621958;54;20053;-68
2021/12/04 03:24:35;;;;;;;1.58;1.38;;;;;;;2.64;77.95;97347.84;2623822;39;20422;-70
2021/12/04 03:27:05;;;;;;;1.30;1.20;;;;;;;2.64;78.48;97338.22;2623030;54;20066;-68
2021/12/04 03:29:40;;;;;;;1.40;1.30;;;;;;;2.56;78.55;97329.66;2622650;54;20033;-69
2021/12/04 03:43:11;;;;;;;2.95;1.42;;;;;;;2.99;78.88;97309.81;2624945;54;20029;-69
2021/12/04 03:45:44;;;;;;;1.95;1.60;;;;;;;3.02;78.36;97308.63;2625675;54;20542;-69
2021/12/04 03:48:18;;;;;;;1.65;1.55;;;;;;;2.94;78.03;97307.75;2624637;47;20039;-68
2021/12/04 03:50:47;;;;;;;2.47;1.45;;;;;;;2.76;78.57;97296.03;2625560;54;20023;-68
2021/12/04 03:53:19;;;;;;;1.33;1.20;;;;;;;2.72;78.43;97299.00;2625104;54;20054;-68
2021/12/04 03:55:49;;;;;;;1.52;1.20;;;;;;;2.73;78.72;97295.44;2624982;54;20023;-68
2021/12/04 03:58:19;;;;;;;1.35;1.25;;;;;;;2.77;79.25;97285.41;2625735;54;20033;-69
2021/12/04 04:00:50;;;;;;;1.60;1.50;;;;;;;2.89;79.16;97283.97;2625544;54;20018;-68
2021/12/04 04:03:20;;;;;;;1.67;1.48;;;;;;;2.93;79.45;97285.22;2625292;54;20058;-70
2021/12/04 04:05:50;;;;;;;2.92;1.75;;;;;;;2.97;79.01;97286.47;2625211;54;20560;-69
2021/12/04 04:08:22;;;;;;;2.78;1.70;;;;;;;2.98;78.91;97284.72;2625680;54;20030;-67
2021/12/04 04:10:54;;;;;;;2.00;1.70;;;;;;;3.04;79.42;97277.94;2625832;54;20038;-68
2021/12/04 04:13:23;;;;;;;2.10;1.60;;;;;;;3.06;78.83;97270.72;2625514;54;20030;-69
2021/12/04 04:15:53;;;;;;;3.20;1.92;;;;;;;2.97;78.89;97267.41;2625793;54;20038;-69
2021/12/04 04:18:23;;;;;;;2.83;2.00;;;;;;;2.85;78.72;97274.88;2624830;54;20041;-69
2021/12/04 04:20:53;;;;;;;1.67;1.58;;;;;;;2.76;78.94;97270.75;2625792;54;20030;-68
2021/12/04 04:23:25;;;;;;;2.85;1.70;;;;;;;2.83;79.40;97265.63;2626608;54;20912;-68
2021/12/04 04:25:55;;;;;;;2.22;2.03;;;;;;;2.90;79.54;97272.56;2626765;54;20034;-67
2021/12/04 04:28:25;;;;;;;6.25;3.08;;;;;;;2.88;79.36;97261.47;2626345;54;20589;-68
2021/12/04 04:30:56;;;;;;;1.98;1.83;;;;;;;2.87;79.46;97261.66;2626496;54;20034;-77
2021/12/04 04:33:25;;;;;;;2.22;1.75;;;;;;;2.83;79.24;97257.81;2626052;54;20041;-68
2021/12/04 04:36:08;;;;;;;3.92;1.90;;;;;;;2.84;79.45;97256.81;2626143;54;20031;-69
2021/12/04 04:38:45;;;;;;;1.75;1.52;;;;;;;2.73;78.89;97247.63;2626433;54;20027;-70
2021/12/04 05:00:34;;;;;;;4.00;1.73;;;;;;;2.80;80.05;97225.03;2625193;54;20034;-70
2021/12/04 05:11:19;;;;;;;4.90;2.55;;;;;;;2.71;80.45;97213.91;2624871;54;20569;-69
2021/12/04 05:13:50;;;;;;;3.55;2.60;;;;;;;2.74;80.37;97207.50;2625962;54;20034;-69
2021/12/04 05:16:28;;;;;;;2.63;2.42;;;;;;;2.67;80.39;97211.84;2625725;47;20022;-69
2021/12/04 05:19:00;;;;;;;3.40;2.47;;;;;;;2.66;80.52;97202.41;2626036;54;20046;-70
2021/12/04 05:21:35;;;;;;;4.47;3.30;;;;;;;2.64;80.96;97210.38;2626337;54;20042;-70
2021/12/04 05:24:05;;;;;;;3.28;2.70;;;;;;;2.68;80.93;97201.19;2626528;54;20037;-69
2021/12/04 05:26:37;;;;;;;4.32;2.90;;;;;;;2.72;81.27;97207.69;2625923;54;20027;-69
2021/12/04 05:29:06;;;;;;;3.47;3.13;;;;;;;2.78;81.13;97200.94;2626239;54;20030;-68
2021/12/04 05:31:36;;;;;;;5.63;3.13;;;;;;;2.81;80.85;97199.75;2626036;54;20050;-68
2021/12/04 05:34:06;;;;;;;8.95;3.13;;;;;;;2.85;81.11;97188.75;2625864;54;20038;-69
2021/12/04 05:36:35;;;;;;;5.32;3.20;;;;;;;2.90;81.07;97188.22;2625713;46;20042;-69
2021/12/04 05:39:06;;;;;;;4.00;3.30;;;;;;;2.94;81.15;97182.47;2626372;54;20027;-68
2021/12/04 05:41:39;;;;;;;5.38;3.33;;;;;;;2.97;81.68;97171.63;2626733;39;20458;-69
2021/12/04 05:44:10;;;;;;;5.15;3.40;;;;;;;3.02;81.61;97168.50;2626155;54;20022;-69
2021/12/04 05:46:45;;;;;;;3.63;3.30;;;;;;;3.04;80.99;97169.09;2626866;39;20461;-69
2021/12/04 05:49:16;;;;;;;2.90;2.60;;;;;;;2.95;81.11;97170.22;2627991;39;20403;-69
2021/12/04 05:57:14;;;;;;;2.15;1.95;;;;;;;2.83;81.79;97164.66;2625945;54;20057;-68
2021/12/04 05:59:43;;;;;;;2.70;2.28;;;;;;;2.83;81.48;97162.03;2626649;39;20556;-68
2021/12/04 06:02:13;;;;;;;5.82;3.20;;;;;;;2.83;81.65;97164.66;2624495;54;20046;-68
2021/12/04 06:04:43;;;;;;;3.38;2.63;;;;;;;2.85;82.19;97172.28;2618020;54;20042;-69
2021/12/04 06:07:12;;;;;;;3.80;2.90;;;;;;;2.86;81.92;97168.72;2619678;39;20132;-68
2021/12/04 06:09:42;;;;;;;4.05;3.33;;;;;;;2.84;81.62;97168.06;2622617;39;20442;-68
2021/12/04 06:12:14;;;;;;;13.52;9.43;;;;;;;2.90;82.37;97157.72;2622536;54;20027;-67
2021/12/04 06:14:46;;;;;;;4.80;3.58;;;;;;;2.94;81.76;97163.38;2623299;54;20045;-67
2021/12/04 06:17:18;;;;;;;3.35;2.63;;;;;;;2.93;81.81;97153.91;2622200;54;20033;-67
2021/12/04 06:22:43;;;;;;;4.28;2.72;;;;;;;2.91;82.13;97145.47;2617925;47;20038;-67
2021/12/04 06:25:15;;;;;;;2.70;2.13;;;;;;;2.96;82.41;97150.94;2618384;54;20038;-68
2021/12/04 06:27:47;;;;;;;2.92;2.60;;;;;;;3.03;82.13;97149.22;2618692;54;20040;-67
2021/12/04 06:30:19;;;;;;;2.92;2.47;;;;;;;2.99;82.10;97155.81;2618371;54;20557;-68
2021/12/04 06:32:51;;;;;;;3.03;2.28;;;;;;;2.99;82.47;97150.56;2620130;54;20045;-68
2021/12/04 06:35:22;;;;;;;3.53;2.20;;;;;;;3.03;82.21;97151.81;2621835;39;20426;-67
2021/12/04 06:37:53;;;;;;;3.10;2.22;;;;;;;3.07;82.88;97147.03;2621461;54;20537;-68
2021/12/04 06:40:26;;;;;;;2.10;1.65;;;;;;;3.13;82.93;97143.69;2620411;54;20037;-68
2021/12/04 06:42:59;;;;;;;2.22;1.92;;;;;;;3.12;82.18;97142.88;2617734;54;20035;-67
2021/12/04 06:45:32;;;;;;;5.45;2.42;;;;;;;3.09;82.38;97151.06;2618366;54;20050;-67
2021/12/04 06:48:05;;;;;;;4.43;2.90;;;;;;;3.07;82.25;97149.66;2618360;54;20038;-67
2021/12/04 06:50:40;;;;;;;2.78;2.22;;;;;;;3.13;82.75;97143.69;2618228;54;20030;-67
2021/12/04 06:53:20;;;;;;;3.65;2.60;;;;;;;3.12;82.46;97145.50;2618252;54;20042;-67
2021/12/04 06:55:53;;;;;;;4.88;2.97;;;;;;;3.14;82.52;97140.91;2618837;31;20611;-67
2021/12/04 06:58:28;;;;;;;4.95;2.80;;;;;;;3.14;82.57;97148.72;2618242;54;20561;-67
2021/12/04 07:00:59;;;;;;;4.97;2.78;;;;;;;3.11;82.85;97141.25;2618505;39;20446;-67
2021/12/04 07:03:29;;;;;;;4.53;2.80;;;;;;;3.10;82.90;97141.44;2618340;54;20537;-67
2021/12/04 07:05:58;;;;;;;4.35;2.65;;;;;;;3.08;82.76;97130.38;2617123;54;20108;-67
2021/12/04 07:08:31;;;;;;;6.95;3.17;;;;;;;3.12;83.01;97129.00;2619781;54;20027;-67
2021/12/04 07:11:04;;;;;;;5.32;3.22;;;;;;;3.19;83.16;97137.72;2619139;54;20038;-67
2021/12/04 07:13:37;;;;;;;3.15;2.58;;;;;;;3.20;82.94;97132.31;2619449;54;20053;-67
2021/12/04 07:16:08;;;;;;;3.60;3.17;;;;;;;3.24;82.73;97135.34;2619254;54;20054;-68
2021/12/04 07:18:39;;;;;;;3.67;3.03;;;;;;;3.24;82.68;97132.75;2619213;54;20033;-67
2021/12/04 07:21:09;;;;;;;3.75;3.10;;;;;;;3.21;82.51;97130.50;2619418;54;20041;-70
2021/12/04 07:23:39;;;;;;;3.50;2.97;;;;;;;3.23;82.89;97125.91;2618730;54;20044;-67
2021/12/04 07:26:09;;;;;;;5.22;3.35;;;;;;;3.26;82.85;97125.53;2620184;39;20450;-67
2021/12/04 07:28:41;;;;;;;6.28;3.38;;;;;;;3.21;82.60;97126.09;2619636;54;20050;-68
2021/12/04 07:31:11;;;;;;;4.78;2.95;;;;;;;3.17;82.55;97121.44;2618803;54;20069;-67
2021/12/04 07:33:41;;;;;;;3.70;2.88;;;;;;;3.17;82.71;97127.44;2619053;54;20053;-67
2021/12/04 07:36:10;;;;;;;4.32;3.10;;;;;;;3.18;83.24;97117.81;2620202;47;20526;-67
2021/12/04 07:38:40;;;;;;;4.22;3.22;;;;;;;3.18;82.96;97125.66;2620375;54;20026;-67
2021/12/04 07:41:10;;;;;;;3.17;2.88;;;;;;;3.15;83.05;97113.78;2619854;54;20035;-66
2021/12/04 07:43:42;;;;;;;3.67;2.80;;;;;;;3.20;82.91;97116.63;2620470;54;20549;-67
2021/12/04 07:46:12;;;;;;;4.57;2.90;;;;;;;3.28;83.24;97105.25;2620612;54;20023;-66
2021/12/04 07:48:42;;;;;;;7.13;3.75;;;;;;;3.29;83.09;97103.47;2621740;39;20433;-67
2021/12/04 07:51:12;;;;;;;5.60;3.72;;;;;;;3.33;83.31;97105.50;2620991;54;20039;-66
2021/12/04 07:53:42;;;;;;;5.03;3.22;;;;;;;3.41;83.09;97101.94;2620792;54;20034;-67
2021/12/04 07:56:12;;;;;;;8.00;4.43;;;;;;;3.47;82.82;97109.84;2620910;54;20034;-67
2021/12/04 07:58:45;;;;;;;6.32;3.42;;;;;;;3.50;82.73;97103.44;2620481;54;20035;-66
2021/12/04 08:01:15;;;;;;;5.57;3.72;;;;;;;3.48;82.51;97097.59;2619675;54;20049;-67
2021/12/04 08:03:45;;;;;;;5.95;2.95;;;;;;;3.52;82.84;97104.06;2620131;54;20022;-67
2021/12/04 08:06:14;;;;;;;7.05;3.60;;;;;;;3.55;82.51;97101.06;2620404;54;20045;-67
2021/12/04 08:08:44;;;;;;;4.63;2.40;;;;;;;3.57;82.50;97100.88;2621802;54;20037;-67
2021/12/04 08:11:14;;;;;;;6.43;2.75;;;;;;;3.59;82.82;97096.25;2621079;54;20031;-67
2021/12/04 08:13:48;;;;;;;5.22;3.33;;;;;;;3.62;82.59;97098.50;2621357;54;20529;-66
2021/12/04 08:16:18;;;;;;;4.90;2.42;;;;;;;3.68;82.49;97102.97;2621170;54;20026;-67
2021/12/04 08:18:48;;;;;;;4.22;2.35;;;;;;;3.70;82.72;97100.97;2622416;54;20027;-67
2021/12/04 08:21:18;;;;;;;5.50;2.67;;;;;;;3.67;82.20;97096.09;2623424;54;20042;-68
2021/12/04 08:23:48;;;;;;;4.40;2.95;;;;;;;3.72;82.66;97097.16;2623258;54;20030;-69
2021/12/04 08:26:18;;;;;;;7.88;3.90;;;;;;;3.81;82.96;97100.44;2625717;54;20046;-67
2021/12/04 08:28:51;;;;;;;4.07;3.15;;;;;;;3.90;82.77;97096.66;2625689;53;20023;-67
2021/12/04 08:31:21;;;;;;;4.53;3.13;;;;;;;3.91;82.37;97093.06;2625998;54;20046;-68
2021/12/04 08:33:51;;;;;;;6.38;3.30;;;;;;;3.96;82.38;97101.16;2625254;54;20307;-68
2021/12/04 08:36:21;;;;;;;4.30;2.60;;;;;;;3.94;82.44;97105.75;2624168;54;20023;-68
2021/12/04 08:38:51;;;;;;;4.80;3.05;;;;;;;3.96;82.30;97110.81;2623086;54;20034;-67
2021/12/04 08:41:21;;;;;;;4.93;3.20;;;;;;;3.95;82.34;97104.75;2624528;54;20557;-67
2021/12/04 08:43:54;;;;;;;3.78;2.70;;;;;;;3.98;82.27;97095.72;2624272;47;20034;-66
2021/12/04 08:46:24;;;;;;;3.58;2.97;;;;;;;4.02;82.45;97096.16;2623052;46;20068;-67
2021/12/04 08:48:56;;;;;;;3.67;2.33;;;;;;;4.08;82.11;97098.81;2621527;54;20035;-67
2021/12/04 08:51:26;;;;;;;5.85;3.08;;;;;;;4.11;82.08;97097.59;2620246;54;20038;-66
2021/12/04 08:53:56;;;;;;;4.38;2.83;;;;;;;4.11;82.13;97089.75;2621327;54;20038;-67
2021/12/04 08:56:25;;;;;;;3.47;2.60;;;;;;;4.17;82.66;97094.22;2620833;54;20041;-68
2021/12/04 08:58:58;;;;;;;3.95;3.35;;;;;;;4.26;82.87;97087.03;2621175;54;20030;-68
2021/12/04 09:01:31;;;;;;;;;;;;;;;4.31;82.45;97082.81;2620636;54;20030;-68
2021/12/04 09:04:06;;;;;;;5.03;3.25;;;;;;;4.36;82.49;97076.97;2622143;54;19939;-68
2021/12/04 09:06:38;;;;;;;6.07;3.42;;;;;;;4.36;81.93;97077.78;2621486;54;20042;-68
2021/12/04 09:09:09;;;;;;;5.28;2.83;;;;;;;4.42;82.35;97086.69;2620677;39;20362;-66
2021/12/04 09:11:44;;;;;;;8.85;3.35;;;;;;;4.45;82.24;97079.25;2619762;54;20550;-67
2021/12/04 09:14:18;;;;;;;5.75;3.90;;;;;;;4.41;82.11;97085.88;2618261;47;20061;-67
2021/12/04 09:16:49;;;;;;;5.88;3.22;;;;;;;4.41;82.24;97087.69;2618544;54;20030;-67
2021/12/04 09:19:19;;;;;;;9.23;2.88;;;;;;;4.42;82.13;97082.25;2618622;54;20027;-67
2021/12/04 09:21:49;;;;;;;4.47;3.35;;;;;;;4.37;82.23;97079.44;2618211;47;20030;-68
2021/12/04 09:24:25;;;;;;;6.18;3.15;;;;;;;4.40;81.92;97071.16;2618663;54;20084;-67
2021/12/04 09:26:59;;;;;;;3.97;2.42;;;;;;;4.41;82.18;97069.38;2618836;54;20082;-67
2021/12/04 09:29:50;;;;;;;;;;;;;;;4.46;82.66;97067.78;2618771;54;20066;-67
2021/12/04 09:32:46;;;;;;;4.10;3.05;;;;;;;4.52;82.50;97071.41;2617753;54;19974;-68
2021/12/04 10:00:07;;;;;;;7.13;4.32;;;;;;;4.92;82.32;97051.38;2619309;54;20161;-68
2021/12/04 10:02:59;;;;;;;12.25;4.85;;;;;;;4.97;82.39;97040.31;2621723;47;20027;-68
2021/12/04 10:14:20;;;;;;;9.57;5.82;;;;;;;5.10;81.30;97029.84;2623588;54;20022;-70
2021/12/04 10:17:16;;;;;;;10.98;7.32;;;;;;;5.11;81.70;97020.19;2623159;51;20034;-69
2021/12/04 10:20:01;;;;;;;9.60;7.15;;;;;;;5.14;81.84;97017.97;2624043;54;20038;-70
2021/12/04 10:23:00;;;;;;;7.38;6.40;;;;;;;5.16;81.28;97020.38;2624044;54;20038;-70
2021/12/04 10:33:54;;;;;;;9.82;6.28;;;;;;;5.25;81.35;97000.81;2619569;54;20053;-69
2021/12/04 10:36:36;;;;;;;8.63;6.50;;;;;;;5.26;81.81;96997.19;2619387;54;20158;-69
2021/12/04 10:39:08;;;;;;;9.52;6.85;;;;;;;5.29;81.98;96993.38;2619723;54;20026;-69
2021/12/04 10:41:44;;;;;;;8.60;6.63;;;;;;;5.29;82.08;96990.75;2619122;54;20034;-69
2021/12/04 10:44:18;;;;;;;6.53;5.18;;;;;;;5.31;81.74;96988.75;2618686;47;20055;-71
2021/12/04 10:47:01;;;;;;;11.30;6.68;;;;;;;5.39;82.36;96991.94;2618262;54;20041;-68
2021/12/04 10:49:44;;;;;;;9.65;6.82;;;;;;;5.44;81.79;96979.03;2618601;54;20070;-71
2021/12/04 10:52:29;;;;;;;7.22;6.40;;;;;;;5.53;81.39;96974.38;2617790;54;20141;-67
2021/12/04 10:55:24;;;;;;;11.07;7.82;;;;;;;5.55;80.97;96963.69;2618377;54;20038;-70
2021/12/04 11:01:09;;;;;;;10.02;6.43;;;;;;;5.63;81.74;96952.97;2616712;47;20026;-67
2021/12/04 11:03:51;;;;;;;7.28;6.03;;;;;;;5.62;81.46;96946.13;2617553;47;20030;-68
2021/12/04 11:06:45;;;;;;;10.07;7.32;;;;;;;5.64;81.18;96938.88;2618043;51;20014;-68
2021/12/04 11:37:20;;;;;;;8.23;4.63;;;;;;;5.72;81.58;96860.81;2619372;54;20030;-69
2021/12/04 11:40:04;;;;;;;6.70;4.55;;;;;;;5.70;81.61;96868.06;2618490;47;20033;-69
2021/12/04 11:42:42;;;;;;;7.10;5.55;;;;;;;5.67;81.44;96854.56;2621020;54;20050;-69
2021/12/04 11:45:20;;;;;;;10.38;5.38;;;;;;;5.56;81.29;96853.41;2621938;54;20082;-70
2021/12/04 11:47:54;;;;;;;7.80;6.32;;;;;;;5.55;81.78;96845.72;2618366;47;20552;-70
2021/12/04 11:50:24;;;;;;;;;;;;;;;5.49;81.97;96836.91;2619899;31;20482;-69
2021/12/04 11:53:00;;;;;;;10.20;7.13;;;;;;;5.45;82.06;96833.88;2618822;31;20421;-69
2021/12/04 11:55:36;;;;;;;14.10;10.48;;;;;;;5.49;82.38;96833.47;2618152;54;20061;-70
2021/12/04 11:58:19;;;;;;;9.98;7.68;;;;;;;5.52;82.01;96828.63;2618259;54;20038;-70
2021/12/04 12:00:50;;;;;;;7.55;6.22;;;;;;;5.49;81.86;96825.63;2618124;54;20065;-68
2021/12/04 12:03:22;;;;;;;7.20;5.63;;;;;;;5.46;82.46;96824.19;2618564;54;20054;-69
